Time;durP1;ratioP1;P1;durP2;ratioP2;P2;SDS_P1;SDS_P2;PMS_P1;PMS_P2;Temp;Humidity;BMP_temperature;BMP_pressure;BME280_temperature;BME280_humidity;BME280_pressure;Samples;Min_cycle;Max_cycle;Signal;HPM_P1;HPM_P2
2023/09/02 00:00:47;;;;;;;;;;;22.00;93.70;;;;;;7387488;19;20006;-79
2023/09/02 00:03:16;;;;;;;5.05;2.35;;;22.00;93.70;;;;;;7386127;19;19907;-79
2023/09/02 00:05:45;;;;;;;3.63;2.10;;;22.00;93.70;;;;;;7388536;19;20401;-80
2023/09/02 00:08:13;;;;;;;2.90;1.92;;;21.90;93.70;;;;;;7398756;19;20244;-80
2023/09/02 00:10:42;;;;;;;7.45;2.08;;;21.90;93.70;;;;;;7409500;19;20031;-79
2023/09/02 00:13:11;;;;;;;4.32;1.77;;;21.80;93.70;;;;;;7386906;19;20034;-79
2023/09/02 00:15:43;;;;;;;3.40;2.15;;;21.80;93.80;;;;;;7385591;19;20006;-79
2023/09/02 00:18:12;;;;;;;3.10;1.98;;;21.80;93.70;;;;;;7386183;19;20026;-79
2023/09/02 00:20:40;;;;;;;3.63;2.20;;;21.80;93.70;;;;;;7388770;19;20032;-78
2023/09/02 00:23:10;;;;;;;3.67;2.10;;;21.80;93.70;;;;;;7408548;19;20021;-79
2023/09/02 00:25:39;;;;;;;4.43;2.30;;;21.70;93.70;;;;;;7390587;19;20014;-80
2023/09/02 00:28:08;;;;;;;8.88;2.40;;;21.70;93.70;;;;;;7386783;19;20011;-79
2023/09/02 00:30:37;;;;;;;4.68;2.17;;;21.70;93.70;;;;;;7386356;19;20011;-79
2023/09/02 00:33:08;;;;;;;4.22;2.20;;;21.70;93.70;;;;;;7384531;19;20006;-80
2023/09/02 00:35:37;;;;;;;4.53;2.17;;;21.70;93.70;;;;;;7385304;19;20006;-80
2023/09/02 00:38:06;;;;;;;6.55;2.17;;;21.60;93.60;;;;;;7404703;19;19999;-79
2023/09/02 00:40:35;;;;;;;3.35;2.20;;;21.60;93.50;;;;;;7385884;19;20212;-80
2023/09/02 00:43:06;;;;;;;6.68;2.50;;;21.60;93.40;;;;;;7383068;19;20019;-79
2023/09/02 00:45:35;;;;;;;3.70;1.95;;;21.60;93.40;;;;;;7383974;19;20236;-80
2023/09/02 00:48:04;;;;;;;3.72;2.03;;;21.60;93.40;;;;;;7384387;19;20030;-79
2023/09/02 00:50:37;;;;;;;6.28;2.20;;;21.60;93.30;;;;;;7385625;19;20229;-80
2023/09/02 00:53:06;;;;;;;10.80;2.80;;;21.50;93.20;;;;;;7406751;19;20006;-80
2023/09/02 00:55:35;;;;;;;4.65;2.55;;;21.50;93.30;;;;;;7385255;19;20013;-80
2023/09/02 00:58:04;;;;;;;6.05;2.85;;;21.40;93.30;;;;;;7384635;19;20031;-80
2023/09/02 01:00:33;;;;;;;8.95;2.40;;;21.40;93.40;;;;;;7385511;19;20035;-79
2023/09/02 01:03:02;;;;;;;5.47;2.97;;;21.40;93.50;;;;;;7385553;19;20016;-80
2023/09/02 01:05:31;;;;;;;5.40;2.83;;;21.30;93.60;;;;;;7385628;19;20007;-79
2023/09/02 01:08:03;;;;;;;4.35;2.70;;;21.30;93.70;;;;;;7406562;19;20608;-80
2023/09/02 01:10:34;;;;;;;5.60;3.10;;;21.20;93.60;;;;;;7384386;19;20393;-79
2023/09/02 01:13:04;;;;;;;2.55;2.17;;;21.20;93.70;;;;;;7384152;19;20068;-79
2023/09/02 01:15:34;;;;;;;5.40;2.80;;;21.20;93.80;;;;;;7383052;19;20019;-79
2023/09/02 01:18:03;;;;;;;3.75;2.45;;;21.20;93.70;;;;;;7382555;19;20024;-80
2023/09/02 01:20:47;;;;;;;4.80;2.08;;;21.20;93.50;;;;;;7385060;19;20015;-79
2023/09/02 01:23:35;;;;;;;4.63;2.80;;;21.20;93.40;;;;;;7381710;19;20006;-79
2023/09/02 01:26:21;;;;;;;5.45;2.90;;;21.20;93.40;;;;;;7406265;19;20006;-79
2023/09/02 01:28:58;;;;;;;3.45;2.55;;;21.10;93.50;;;;;;7384872;19;20272;-79
2023/09/02 01:31:27;;;;;;;3.15;2.53;;;21.20;93.60;;;;;;7386543;19;20015;-79
2023/09/02 01:33:56;;;;;;;5.43;2.88;;;21.20;93.40;;;;;;7387483;19;20334;-79
2023/09/02 01:36:27;;;;;;;3.38;2.65;;;21.10;93.30;;;;;;7387465;19;20007;-79
2023/09/02 01:38:56;;;;;;;8.30;2.60;;;21.10;93.20;;;;;;7391171;19;20007;-79
2023/09/02 01:41:27;;;;;;;8.38;2.80;;;21.10;93.20;;;;;;7385314;19;20014;-80
2023/09/02 01:43:59;;;;;;;4.60;2.42;;;21.10;93.10;;;;;;7408682;19;20014;-80
2023/09/02 01:46:28;;;;;;;4.10;2.10;;;21.10;93.10;;;;;;7395658;19;20026;-78
2023/09/02 01:48:58;;;;;;;4.30;2.40;;;21.10;93.20;;;;;;7399711;19;19999;-79
2023/09/02 01:51:28;;;;;;;7.78;2.28;;;21.10;93.20;;;;;;7399408;19;20002;-78
2023/09/02 01:53:57;;;;;;;4.88;2.53;;;21.10;93.10;;;;;;7400280;19;19998;-78
2023/09/02 01:56:27;;;;;;;7.88;2.50;;;21.10;92.90;;;;;;7385030;19;20031;-79
2023/09/02 01:59:00;;;;;;;8.15;2.75;;;21.10;92.90;;;;;;7403399;19;20019;-80
2023/09/02 02:01:30;;;;;;;6.55;2.65;;;21.00;92.90;;;;;;7383498;19;20007;-80
2023/09/02 02:04:08;;;;;;;5.60;2.28;;;21.00;92.90;;;;;;7382905;19;20256;-80
2023/09/02 02:06:40;;;;;;;7.25;2.90;;;21.00;93.00;;;;;;7382901;19;20007;-78
2023/09/02 02:09:09;;;;;;;;;;;20.90;93.10;;;;;;7382444;19;20354;-79
2023/09/02 02:11:40;;;;;;;5.75;2.47;;;20.90;93.20;;;;;;7383757;19;19956;-78
2023/09/02 02:14:11;;;;;;;5.88;2.80;;;20.90;93.10;;;;;;7404096;19;20011;-79
2023/09/02 02:16:39;;;;;;;;;;;20.90;93.20;;;;;;7383967;19;20003;-81
2023/09/02 02:19:08;;;;;;;4.72;2.63;;;20.90;93.20;;;;;;7381882;19;19919;-80
2023/09/02 02:21:37;;;;;;;7.50;2.70;;;20.90;93.20;;;;;;7382357;19;20034;-79
2023/09/02 02:24:06;;;;;;;6.53;3.08;;;20.90;93.30;;;;;;7381293;19;20101;-79
2023/09/02 02:26:35;;;;;;;5.13;2.45;;;20.90;93.40;;;;;;7380339;19;20032;-80
2023/09/02 02:29:04;;;;;;;13.63;2.60;;;20.90;93.40;;;;;;7403862;19;20003;-79
2023/09/02 02:31:36;;;;;;;5.15;2.10;;;20.80;93.20;;;;;;7380345;19;20003;-80
2023/09/02 02:34:05;;;;;;;11.68;2.70;;;20.80;92.90;;;;;;7381828;19;20091;-81
2023/09/02 02:36:34;;;;;;;4.35;2.25;;;20.80;92.70;;;;;;7380224;19;20003;-79
2023/09/02 02:39:04;;;;;;;8.18;2.80;;;20.80;92.70;;;;;;7379641;19;20006;-78
2023/09/02 02:41:33;;;;;;;6.20;2.38;;;20.80;92.80;;;;;;7382678;19;20028;-79
2023/09/02 02:44:02;;;;;;;4.72;2.53;;;20.80;92.80;;;;;;7402058;19;20014;-80
2023/09/02 02:46:31;;;;;;;5.30;2.47;;;20.80;92.80;;;;;;7381412;19;20011;-79
2023/09/02 02:49:02;;;;;;;7.70;2.42;;;20.80;92.90;;;;;;7381535;19;20007;-80
2023/09/02 02:51:31;;;;;;;5.18;1.98;;;20.80;92.90;;;;;;7382673;19;20022;-80
2023/09/02 02:54:00;;;;;;;4.00;2.10;;;20.70;92.60;;;;;;7380660;19;20113;-79
2023/09/02 02:56:28;;;;;;;5.45;2.88;;;20.70;92.60;;;;;;7379948;19;20354;-79
2023/09/02 02:58:57;;;;;;;3.88;2.25;;;20.70;92.70;;;;;;7401780;19;20238;-79
2023/09/02 03:01:26;;;;;;;3.40;2.40;;;20.70;92.80;;;;;;7380825;19;20571;-79
2023/09/02 03:03:55;;;;;;;8.50;2.60;;;20.70;92.80;;;;;;7380058;19;20068;-79
2023/09/02 03:06:26;;;;;;;3.88;2.40;;;20.70;92.90;;;;;;7382980;19;20020;-79
2023/09/02 03:08:54;;;;;;;;;;;20.70;93.00;;;;;;7387128;19;20003;-79
2023/09/02 03:11:23;;;;;;;5.28;2.22;;;20.70;93.20;;;;;;7386522;19;19907;-79
2023/09/02 03:13:52;;;;;;;3.67;1.98;;;20.70;93.00;;;;;;7407490;19;20266;-78
2023/09/02 03:16:20;;;;;;;7.82;2.45;;;20.70;93.00;;;;;;7387876;19;20244;-79
2023/09/02 03:18:49;;;;;;;3.47;1.90;;;20.70;92.90;;;;;;7387410;19;20022;-80
2023/09/02 03:21:18;;;;;;;4.88;2.50;;;20.70;93.00;;;;;;7388608;19;20029;-80
2023/09/02 03:23:49;;;;;;;10.93;2.53;;;20.70;93.00;;;;;;7388385;19;20017;-80
2023/09/02 03:26:19;;;;;;;;;;;20.70;92.90;;;;;;7390312;19;20018;-79
2023/09/02 03:28:48;;;;;;;5.40;2.95;;;20.70;92.70;;;;;;7411106;19;20227;-80
2023/09/02 03:31:16;;;;;;;4.90;1.92;;;20.60;92.60;;;;;;7387526;19;20010;-80
2023/09/02 03:33:45;;;;;;;4.68;2.17;;;20.60;92.80;;;;;;7387702;19;20007;-80
2023/09/02 03:36:19;;;;;;;5.03;2.38;;;20.60;92.90;;;;;;7389061;19;20011;-78
2023/09/02 03:38:51;;;;;;;4.53;2.35;;;20.60;93.30;;;;;;7387054;19;20015;-79
2023/09/02 03:41:23;;;;;;;3.35;2.00;;;20.60;93.00;;;;;;7389336;19;20229;-79
2023/09/02 03:43:51;;;;;;;5.22;2.20;;;20.60;93.00;;;;;;7411554;19;20027;-79
2023/09/02 03:46:22;;;;;;;5.80;2.33;;;20.60;93.00;;;;;;7389772;19;20017;-80
2023/09/02 03:48:51;;;;;;;3.80;2.33;;;20.60;92.90;;;;;;7401008;19;20007;-78
2023/09/02 03:51:19;;;;;;;3.80;2.33;;;20.60;93.00;;;;;;7404712;19;20013;-78
2023/09/02 03:53:51;;;;;;;3.95;2.30;;;20.60;92.90;;;;;;7406347;19;20002;-78
2023/09/02 03:56:19;;;;;;;4.65;2.67;;;20.60;92.90;;;;;;7404211;19;20010;-78
2023/09/02 03:58:48;;;;;;;3.75;2.50;;;20.60;92.80;;;;;;7419813;19;20014;-79
2023/09/02 04:01:17;;;;;;;3.10;1.98;;;20.60;92.90;;;;;;7387511;19;20018;-79
2023/09/02 04:03:45;;;;;;;6.70;2.17;;;20.60;92.90;;;;;;7385977;19;20002;-79
2023/09/02 04:06:14;;;;;;;3.28;2.20;;;20.60;93.00;;;;;;7385864;19;20003;-80
2023/09/02 04:08:43;;;;;;;4.43;2.25;;;20.60;93.10;;;;;;7386358;19;20016;-80
2023/09/02 04:11:14;;;;;;;6.35;2.33;;;20.50;93.10;;;;;;7407641;19;20012;-79
2023/09/02 04:13:43;;;;;;;5.25;2.75;;;20.50;93.20;;;;;;7386396;19;20082;-81
2023/09/02 04:16:12;;;;;;;3.85;2.00;;;20.50;93.10;;;;;;7385662;19;20062;-79
2023/09/02 04:18:42;;;;;;;4.70;2.20;;;20.50;93.00;;;;;;7381506;19;20019;-79
2023/09/02 04:21:11;;;;;;;4.23;2.57;;;20.50;93.10;;;;;;7386831;19;20530;-80
2023/09/02 04:23:41;;;;;;;4.20;2.30;;;20.50;93.10;;;;;;7385316;19;20024;-79
2023/09/02 04:26:10;;;;;;;7.95;2.15;;;20.50;93.00;;;;;;7406612;19;20023;-81
2023/09/02 04:28:41;;;;;;;8.52;2.40;;;20.50;92.70;;;;;;7386548;19;20240;-80
2023/09/02 04:31:09;;;;;;;;;;;20.40;92.70;;;;;;7388162;19;20011;-79
2023/09/02 04:33:38;;;;;;;4.68;2.45;;;20.50;92.80;;;;;;7387655;19;19915;-79
2023/09/02 04:36:07;;;;;;;2.92;1.95;;;20.40;92.80;;;;;;7388006;19;20015;-79
2023/09/02 04:38:36;;;;;;;5.72;2.47;;;20.40;92.80;;;;;;7385656;19;20003;-79
2023/09/02 04:41:06;;;;;;;10.13;2.20;;;20.40;92.80;;;;;;7409627;19;20009;-80
2023/09/02 04:43:36;;;;;;;8.15;2.47;;;20.40;92.80;;;;;;7387312;19;20003;-79
2023/09/02 04:46:08;;;;;;;6.70;2.28;;;20.40;92.80;;;;;;7388783;19;20026;-81
2023/09/02 04:48:37;;;;;;;6.45;2.45;;;20.40;92.80;;;;;;7387986;19;20257;-79
2023/09/02 04:51:07;;;;;;;2.63;1.90;;;20.40;92.70;;;;;;7387807;19;20025;-79
2023/09/02 04:53:36;;;;;;;8.25;2.15;;;20.40;92.80;;;;;;7385689;19;20123;-80
2023/09/02 04:56:07;;;;;;;2.75;2.38;;;20.40;92.80;;;;;;7409397;19;20014;-80
2023/09/02 04:58:36;;;;;;;3.15;2.25;;;20.40;92.90;;;;;;7386690;19;20006;-80
2023/09/02 05:01:14;;;;;;;4.78;2.22;;;20.40;92.90;;;;;;7390423;19;20031;-79
2023/09/02 05:03:43;;;;;;;3.15;2.08;;;20.30;92.90;;;;;;7385384;19;20021;-80
2023/09/02 05:06:12;;;;;;;3.25;1.92;;;20.40;92.80;;;;;;7386524;19;20011;-80
2023/09/02 05:08:41;;;;;;;5.40;2.20;;;20.30;92.60;;;;;;7386296;19;20029;-80
2023/09/02 05:11:10;;;;;;;3.80;2.10;;;20.30;92.50;;;;;;7406216;19;20003;-79
2023/09/02 05:13:39;;;;;;;8.48;2.75;;;20.30;92.50;;;;;;7384146;19;20018;-79
2023/09/02 05:16:07;;;;;;;4.40;2.50;;;20.30;92.50;;;;;;7383442;19;20038;-78
2023/09/02 05:18:39;;;;;;;2.92;1.92;;;20.30;92.50;;;;;;7382339;19;20370;-78
2023/09/02 05:21:07;;;;;;;;;;;20.30;92.60;;;;;;7384358;19;20010;-79
2023/09/02 05:23:36;;;;;;;10.80;3.28;;;20.30;92.70;;;;;;7382634;19;20275;-79
2023/09/02 05:26:05;;;;;;;4.03;2.53;;;20.30;92.70;;;;;;7403702;19;20016;-78
2023/09/02 05:28:33;;;;;;;3.83;2.15;;;20.30;92.80;;;;;;7383052;19;20006;-78
2023/09/02 05:31:02;;;;;;;6.00;2.60;;;20.30;92.90;;;;;;7383179;19;19999;-80
2023/09/02 05:33:31;;;;;;;6.18;2.70;;;20.30;92.80;;;;;;7383289;19;20258;-79
2023/09/02 05:36:02;;;;;;;15.18;3.30;;;20.30;92.80;;;;;;7383126;19;20023;-79
2023/09/02 05:38:31;;;;;;;;;;;20.30;93.00;;;;;;7383205;19;20010;-79
2023/09/02 05:40:59;;;;;;;6.28;2.72;;;20.40;93.10;;;;;;7405094;19;19911;-79
2023/09/02 05:43:29;;;;;;;3.88;2.28;;;20.40;93.10;;;;;;7385747;19;20010;-79
2023/09/02 05:46:01;;;;;;;4.70;2.40;;;20.40;93.10;;;;;;7386261;19;20002;-79
2023/09/02 05:48:30;;;;;;;4.95;2.22;;;20.50;93.20;;;;;;7388964;19;20011;-80
2023/09/02 05:51:01;;;;;;;4.50;2.60;;;20.50;93.10;;;;;;7390266;19;20019;-79
2023/09/02 05:53:30;;;;;;;3.92;2.35;;;20.60;93.00;;;;;;7400191;19;20007;-79
2023/09/02 05:55:59;;;;;;;6.97;2.80;;;20.60;92.90;;;;;;7421601;19;20017;-79
2023/09/02 05:58:29;;;;;;;9.40;2.20;;;20.70;92.80;;;;;;7399798;19;20011;-79
2023/09/02 06:00:59;;;;;;;5.70;2.80;;;20.70;92.90;;;;;;7400313;19;20034;-79
2023/09/02 06:03:27;;;;;;;5.97;2.65;;;20.70;93.00;;;;;;7390224;19;20002;-79
2023/09/02 06:05:56;;;;;;;7.20;2.67;;;20.70;93.10;;;;;;7385205;19;20103;-79
2023/09/02 06:08:27;;;;;;;4.80;2.83;;;20.70;93.20;;;;;;7384417;19;20019;-79
2023/09/02 06:11:00;;;;;;;6.40;2.80;;;20.70;93.20;;;;;;7404786;19;20018;-80
2023/09/02 06:13:29;;;;;;;8.73;2.75;;;20.70;93.20;;;;;;7383897;19;20007;-79
2023/09/02 06:16:01;;;;;;;4.57;2.88;;;20.80;93.20;;;;;;7381181;19;20030;-79
2023/09/02 06:18:30;;;;;;;5.45;2.58;;;20.80;93.20;;;;;;7381273;19;20002;-78
2023/09/02 06:20:59;;;;;;;6.53;2.63;;;20.80;93.20;;;;;;7382429;19;20280;-80
2023/09/02 06:23:31;;;;;;;7.22;2.90;;;20.80;93.30;;;;;;7382606;19;20024;-79
2023/09/02 06:25:59;;;;;;;;;;;20.80;93.30;;;;;;7403078;19;20266;-80
2023/09/02 06:28:29;;;;;;;7.03;2.50;;;20.90;93.30;;;;;;7382789;19;19923;-78
2023/09/02 06:30:58;;;;;;;12.48;3.00;;;20.90;93.40;;;;;;7383378;19;20010;-79
2023/09/02 06:33:28;;;;;;;7.07;2.97;;;20.90;93.50;;;;;;7384131;19;20052;-80
2023/09/02 06:35:56;;;;;;;2.65;2.25;;;20.90;93.60;;;;;;7384131;19;20027;-78
2023/09/02 06:38:25;;;;;;;7.28;2.75;;;20.90;93.60;;;;;;7382018;19;20011;-80
2023/09/02 06:40:56;;;;;;;5.47;2.53;;;21.00;93.60;;;;;;7405117;19;20010;-79
2023/09/02 06:43:25;;;;;;;;;;;21.00;93.80;;;;;;7391575;19;20030;-80
2023/09/02 06:45:54;;;;;;;6.15;2.72;;;21.10;93.90;;;;;;7388830;19;19923;-78
2023/09/02 06:48:22;;;;;;;6.68;2.97;;;21.10;93.90;;;;;;7389076;19;20010;-78
2023/09/02 06:50:51;;;;;;;4.88;3.05;;;21.20;94.00;;;;;;7388581;19;20006;-78
2023/09/02 06:53:20;;;;;;;3.42;2.53;;;21.30;94.10;;;;;;7388595;19;20007;-79
2023/09/02 06:55:48;;;;;;;5.90;2.60;;;21.40;94.10;;;;;;7406306;19;20026;-79
2023/09/02 06:58:20;;;;;;;6.07;2.80;;;21.50;94.10;;;;;;7389423;19;20034;-79
2023/09/02 07:00:48;;;;;;;;;;;21.60;94.20;;;;;;7388123;19;20003;-78
2023/09/02 07:03:17;;;;;;;7.53;2.88;;;21.70;94.20;;;;;;7387284;19;19922;-79
2023/09/02 07:05:46;;;;;;;5.35;2.90;;;21.80;94.10;;;;;;7389365;19;20025;-78
2023/09/02 07:08:14;;;;;;;6.57;2.80;;;21.90;94.10;;;;;;7392099;19;20007;-79
2023/09/02 07:10:43;;;;;;;7.07;4.47;;;22.00;94.20;;;;;;7410868;19;20034;-79
2023/09/02 07:13:12;;;;;;;12.55;5.53;;;22.10;94.30;;;;;;7388555;19;20016;-78
2023/09/02 07:15:43;;;;;;;14.52;4.55;;;22.10;94.30;;;;;;7388617;19;20022;-78
2023/09/02 07:18:12;;;;;;;;;;;22.10;94.40;;;;;;7389721;19;20015;-78
2023/09/02 07:20:40;;;;;;;9.70;3.80;;;22.20;94.30;;;;;;7386957;19;19911;-79
2023/09/02 07:23:09;;;;;;;9.23;3.53;;;22.20;94.20;;;;;;7410853;19;20030;-78
2023/09/02 07:25:38;;;;;;;10.90;2.78;;;22.30;94.30;;;;;;7387925;19;20018;-78
2023/09/02 07:28:08;;;;;;;4.47;3.00;;;22.30;94.40;;;;;;7387299;19;20003;-78
2023/09/02 07:30:39;;;;;;;7.40;3.05;;;22.30;94.40;;;;;;7387988;19;20072;-77
2023/09/02 07:33:11;;;;;;;8.48;2.90;;;22.40;94.50;;;;;;7385882;19;20350;-79
2023/09/02 07:35:39;;;;;;;;;;;22.40;94.70;;;;;;7385827;19;20018;-79
2023/09/02 07:38:09;;;;;;;5.68;2.78;;;22.40;94.80;;;;;;7406574;19;19924;-79
2023/09/02 07:40:37;;;;;;;5.25;2.85;;;22.30;94.00;;;;;;7385216;19;20003;-78
2023/09/02 07:43:06;;;;;;;5.13;2.70;;;22.20;93.80;;;;;;7387369;19;20255;-80
2023/09/02 07:45:35;;;;;;;6.65;3.33;;;22.20;93.60;;;;;;7387697;19;20011;-79
2023/09/02 07:48:04;;;;;;;7.63;3.38;;;22.20;93.80;;;;;;7388505;19;20003;-80
2023/09/02 07:50:36;;;;;;;7.55;2.90;;;22.20;94.00;;;;;;7389419;19;20048;-79
2023/09/02 07:53:04;;;;;;;;;;;22.20;94.00;;;;;;7411216;19;20007;-80
2023/09/02 07:55:33;;;;;;;4.03;2.70;;;22.30;93.70;;;;;;7391996;19;19984;-79
2023/09/02 07:58:01;;;;;;;4.85;2.80;;;22.20;93.60;;;;;;7399156;19;20009;-78
2023/09/02 08:00:31;;;;;;;4.57;2.92;;;22.30;93.80;;;;;;7403507;19;19999;-77
2023/09/02 08:03:00;;;;;;;4.30;2.33;;;22.30;93.60;;;;;;7403791;19;20015;-78
2023/09/02 08:05:29;;;;;;;5.90;2.47;;;22.30;93.80;;;;;;7399225;19;20011;-78
2023/09/02 08:08:01;;;;;;;6.75;2.22;;;22.50;93.60;;;;;;7412820;19;20338;-78
2023/09/02 08:10:29;;;;;;;6.82;2.47;;;22.50;93.30;;;;;;7388569;19;20349;-79
2023/09/02 08:12:58;;;;;;;6.22;2.03;;;22.50;93.10;;;;;;7389444;19;20027;-79
2023/09/02 08:15:27;;;;;;;3.67;2.50;;;22.40;93.50;;;;;;7391280;19;20023;-79
2023/09/02 08:17:55;;;;;;;5.50;2.33;;;22.40;93.60;;;;;;7393041;19;20011;-79
2023/09/02 08:20:25;;;;;;;5.60;2.33;;;22.40;93.60;;;;;;7393533;19;20034;-78
2023/09/02 08:22:53;;;;;;;8.55;2.15;;;22.30;93.70;;;;;;7416561;19;20007;-79
2023/09/02 08:25:25;;;;;;;6.22;2.50;;;22.40;93.50;;;;;;7386519;19;20018;-79
2023/09/02 08:27:53;;;;;;;;;;;22.50;93.50;;;;;;7386879;19;20010;-79
2023/09/02 08:30:22;;;;;;;4.57;2.45;;;22.60;93.30;;;;;;7385900;19;19919;-79
2023/09/02 08:32:51;;;;;;;3.08;1.95;;;22.70;93.10;;;;;;7385218;19;20023;-79
2023/09/02 08:35:20;;;;;;;2.45;1.73;;;22.70;92.80;;;;;;7385784;19;20010;-79
2023/09/02 08:37:51;;;;;;;2.47;1.73;;;22.80;92.80;;;;;;7404217;19;20100;-78
2023/09/02 08:40:20;;;;;;;8.38;1.80;;;22.90;92.80;;;;;;7382723;19;20007;-79
2023/09/02 08:42:52;;;;;;;3.60;2.10;;;22.90;92.60;;;;;;7385707;19;20024;-79
2023/09/02 08:45:23;;;;;;;2.63;1.77;;;22.90;92.40;;;;;;7385419;19;20006;-79
2023/09/02 08:47:56;;;;;;;5.00;1.75;;;23.00;92.30;;;;;;7386538;19;20491;-80
2023/09/02 08:50:29;;;;;;;2.65;1.70;;;23.10;92.20;;;;;;7384374;19;20022;-79
2023/09/02 08:52:57;;;;;;;5.85;1.70;;;23.10;92.20;;;;;;7404501;19;20002;-78
2023/09/02 08:55:29;;;;;;;3.60;1.80;;;23.20;92.20;;;;;;7383523;19;20010;-78
2023/09/02 08:58:01;;;;;;;3.03;2.08;;;23.20;92.00;;;;;;7384936;19;20007;-78
2023/09/02 09:00:30;;;;;;;4.15;1.80;;;23.30;91.90;;;;;;7384039;19;20011;-79
2023/09/02 09:02:59;;;;;;;2.72;1.60;;;23.30;91.80;;;;;;7383257;19;20305;-79
2023/09/02 09:05:28;;;;;;;2.17;1.60;;;23.40;91.70;;;;;;7382008;19;20020;-79
2023/09/02 09:07:57;;;;;;;4.68;1.50;;;23.50;91.00;;;;;;7405100;19;20023;-79
2023/09/02 09:10:26;;;;;;;3.83;1.60;;;23.50;91.00;;;;;;7384532;19;19999;-79
2023/09/02 09:13:01;;;;;;;4.97;1.70;;;23.50;91.00;;;;;;7383827;19;20261;-79
2023/09/02 09:15:30;;;;;;;3.38;1.75;;;23.50;91.10;;;;;;7385418;19;20010;-79
2023/09/02 09:17:59;;;;;;;1.67;1.58;;;23.60;90.90;;;;;;7383148;19;20024;-78
2023/09/02 09:20:27;;;;;;;3.45;1.73;;;23.60;90.70;;;;;;7382911;19;20002;-79
2023/09/02 09:22:56;;;;;;;2.28;1.75;;;23.70;90.80;;;;;;7402717;19;20219;-78
2023/09/02 09:25:25;;;;;;;4.05;1.92;;;23.60;90.80;;;;;;7381311;19;20014;-78
2023/09/02 09:27:54;;;;;;;5.20;1.90;;;23.70;90.90;;;;;;7383199;19;20003;-78
2023/09/02 09:30:34;;;;;;;4.50;1.95;;;23.70;90.70;;;;;;7384400;19;20007;-78
2023/09/02 09:33:05;;;;;;;4.03;1.90;;;23.80;90.50;;;;;;7383581;19;20010;-78
2023/09/02 09:35:34;;;;;;;4.00;1.88;;;23.80;90.20;;;;;;7383355;19;19995;-79
2023/09/02 09:38:04;;;;;;;4.75;1.92;;;23.80;90.10;;;;;;7405156;19;20382;-78
2023/09/02 09:40:34;;;;;;;5.80;2.07;;;23.80;90.20;;;;;;7381352;19;20086;-79
2023/09/02 09:43:04;;;;;;;4.47;2.20;;;23.90;90.20;;;;;;7382924;19;20255;-78
2023/09/02 09:45:36;;;;;;;4.90;2.10;;;23.90;90.30;;;;;;7382730;19;20539;-78
2023/09/02 09:48:11;;;;;;;;;;;23.90;90.50;;;;;;7385936;19;20247;-78
2023/09/02 09:50:40;;;;;;;5.38;2.70;;;24.00;90.40;;;;;;7381618;19;19907;-79
2023/09/02 09:53:09;;;;;;;8.48;2.35;;;24.00;90.20;;;;;;7399632;19;20010;-78
2023/09/02 09:55:39;;;;;;;4.53;1.77;;;24.00;90.30;;;;;;7381754;19;20006;-80
2023/09/02 09:58:08;;;;;;;7.38;2.33;;;24.10;90.60;;;;;;7384760;19;20247;-79
2023/09/02 10:00:39;;;;;;;9.85;2.42;;;24.10;90.40;;;;;;7400728;19;20007;-78
2023/09/02 10:03:09;;;;;;;3.75;2.13;;;24.10;90.20;;;;;;7402529;19;20017;-79
2023/09/02 10:05:37;;;;;;;7.85;2.13;;;24.10;90.40;;;;;;7400800;19;20006;-79
2023/09/02 10:08:08;;;;;;;5.03;2.05;;;24.10;90.20;;;;;;7420423;19;20018;-78
2023/09/02 10:10:38;;;;;;;1.75;1.65;;;24.10;90.10;;;;;;7390553;19;20002;-77
2023/09/02 10:13:07;;;;;;;4.72;1.63;;;24.10;90.10;;;;;;7381422;19;20064;-78
2023/09/02 10:15:39;;;;;;;2.65;2.00;;;24.20;90.00;;;;;;7382249;19;20031;-79
2023/09/02 10:18:07;;;;;;;6.45;2.10;;;24.20;89.40;;;;;;7390831;19;20019;-78
2023/09/02 10:20:38;;;;;;;5.05;2.20;;;24.20;89.60;;;;;;7388792;19;20232;-78
2023/09/02 10:23:08;;;;;;;10.07;2.27;;;24.30;90.00;;;;;;7410614;19;20011;-79
2023/09/02 10:25:46;;;;;;;3.55;2.28;;;24.30;90.00;;;;;;7389899;19;20264;-79
2023/09/02 10:28:20;;;;;;;3.92;2.25;;;24.40;89.70;;;;;;7389116;19;20003;-79
2023/09/02 10:30:53;;;;;;;5.28;2.60;;;24.40;89.80;;;;;;7389071;19;20002;-78
2023/09/02 10:33:34;;;;;;;5.78;2.55;;;24.50;90.00;;;;;;7389029;19;20010;-79
2023/09/02 10:36:06;;;;;;;8.83;2.30;;;24.50;89.70;;;;;;7390872;19;20082;-79
2023/09/02 10:38:39;;;;;;;5.93;2.35;;;24.60;89.50;;;;;;7389981;19;20438;-77
2023/09/02 10:41:14;;;;;;;3.35;2.38;;;24.60;89.00;;;;;;7407337;19;20018;-78
2023/09/02 10:43:44;;;;;;;4.38;2.40;;;24.60;88.80;;;;;;7389158;19;20015;-77
2023/09/02 10:46:16;;;;;;;4.03;2.47;;;24.60;88.20;;;;;;7387778;19;20027;-78
2023/09/02 10:48:48;;;;;;;7.15;2.60;;;24.60;88.60;;;;;;7387558;19;20007;-79
2023/09/02 10:51:18;;;;;;;6.10;2.50;;;24.70;88.40;;;;;;7390172;19;20015;-78
2023/09/02 10:54:01;;;;;;;4.50;2.67;;;24.70;88.00;;;;;;7389296;19;20002;-79
2023/09/02 10:56:32;;;;;;;4.68;2.60;;;24.80;88.30;;;;;;7389342;19;20010;-78
2023/09/02 10:59:01;;;;;;;3.53;2.33;;;24.80;88.40;;;;;;7409791;19;20016;-77
2023/09/02 11:01:45;;;;;;;5.68;2.40;;;24.80;88.40;;;;;;7384597;19;19999;-78
2023/09/02 11:04:16;;;;;;;4.20;2.47;;;24.90;88.70;;;;;;7389182;19;20007;-78
2023/09/02 11:07:14;;;;;;;8.55;1.77;;;24.90;88.50;;;;;;7389310;19;20051;-77
2023/09/02 11:09:53;;;;;;;8.77;2.35;;;25.00;88.60;;;;;;7388378;19;20027;-78
2023/09/02 11:12:22;;;;;;;7.72;2.30;;;25.10;88.30;;;;;;7388616;19;20007;-78
2023/09/02 11:15:17;;;;;;;2.38;1.80;;;25.10;88.30;;;;;;7387835;19;20010;-77
2023/09/02 11:17:48;;;;;;;4.88;2.20;;;25.30;88.30;;;;;;7388925;19;20014;-78
2023/09/02 11:20:20;;;;;;;8.10;2.20;;;25.30;87.60;;;;;;7386962;19;20027;-78
2023/09/02 11:22:55;;;;;;;5.03;2.20;;;25.30;87.70;;;;;;7409528;19;20019;-78
2023/09/02 11:25:36;;;;;;;2.83;1.95;;;25.40;87.70;;;;;;7387747;19;20078;-78
2023/09/02 11:28:07;;;;;;;4.70;2.05;;;25.50;87.00;;;;;;7387954;19;20090;-79
2023/09/02 11:30:38;;;;;;;7.40;2.17;;;25.50;86.50;;;;;;7389046;19;20458;-79
2023/09/02 11:33:11;;;;;;;3.33;1.95;;;25.50;86.90;;;;;;7389756;19;20078;-78
2023/09/02 11:35:40;;;;;;;2.55;1.75;;;25.60;86.10;;;;;;7391547;19;20024;-78
2023/09/02 11:38:18;;;;;;;4.82;2.20;;;25.70;86.20;;;;;;7414681;19;20015;-79
2023/09/02 11:40:48;;;;;;;5.72;1.70;;;25.70;86.80;;;;;;7396050;19;20512;-80
2023/09/02 11:43:20;;;;;;;7.28;1.70;;;25.70;85.60;;;;;;7394339;19;20014;-80
2023/09/02 11:45:50;;;;;;;6.18;1.77;;;25.80;85.00;;;;;;7396845;19;20011;-79
2023/09/02 11:48:21;;;;;;;6.28;1.73;;;25.80;85.20;;;;;;7387811;19;20023;-79
2023/09/02 11:50:50;;;;;;;2.05;1.48;;;25.90;84.20;;;;;;7387223;19;20007;-78
2023/09/02 11:53:19;;;;;;;2.88;1.55;;;26.00;84.10;;;;;;7384611;19;20115;-78
2023/09/02 11:55:47;;;;;;;4.55;1.30;;;26.10;83.60;;;;;;7409291;19;20456;-79
2023/09/02 11:58:19;;;;;;;5.03;1.70;;;26.10;83.20;;;;;;7387053;19;20027;-79
2023/09/02 12:00:48;;;;;;;2.45;1.60;;;26.20;82.70;;;;;;7387434;19;20006;-79
2023/09/02 12:03:22;;;;;;;4.63;1.65;;;26.20;82.90;;;;;;7404939;19;20341;-78
2023/09/02 12:05:54;;;;;;;1.88;1.48;;;26.30;82.30;;;;;;7404016;19;19999;-79
2023/09/02 12:08:23;;;;;;;2.15;1.48;;;26.40;82.10;;;;;;7402623;19;20007;-78
2023/09/02 12:10:52;;;;;;;2.38;1.55;;;26.50;81.10;;;;;;7425099;19;20010;-78
2023/09/02 12:13:21;;;;;;;2.92;1.35;;;26.50;80.90;;;;;;7394417;19;20007;-78
2023/09/02 12:15:51;;;;;;;1.73;1.45;;;26.60;81.10;;;;;;7387248;19;20014;-78
2023/09/02 12:18:21;;;;;;;1.87;1.40;;;26.70;82.20;;;;;;7386500;19;20027;-78
2023/09/02 12:20:52;;;;;;;3.10;1.60;;;26.70;81.60;;;;;;7385113;19;20035;-79
2023/09/02 12:23:21;;;;;;;2.47;1.60;;;26.80;80.60;;;;;;7386401;19;20003;-78
2023/09/02 12:26:06;;;;;;;4.22;1.60;;;26.80;79.20;;;;;;7408763;19;20019;-78
2023/09/02 12:28:35;;;;;;;2.28;1.50;;;26.90;78.50;;;;;;7386426;19;20027;-79
2023/09/02 12:31:05;;;;;;;3.10;1.48;;;27.00;78.60;;;;;;7385726;19;19999;-78
2023/09/02 12:33:34;;;;;;;2.22;1.20;;;27.00;78.80;;;;;;7387678;19;20007;-79
2023/09/02 12:36:06;;;;;;;5.88;1.73;;;27.10;78.60;;;;;;7388308;19;20028;-79
2023/09/02 12:38:50;;;;;;;1.65;1.48;;;27.20;77.90;;;;;;7385352;19;20000;-78
2023/09/02 12:41:18;;;;;;;1.30;1.20;;;27.30;77.50;;;;;;7383964;19;20010;-78
2023/09/02 12:43:47;;;;;;;4.18;1.60;;;27.30;77.40;;;;;;7408113;19;20095;-78
2023/09/02 12:46:20;;;;;;;1.63;1.30;;;27.40;76.80;;;;;;7384940;19;20022;-77
2023/09/02 12:48:49;;;;;;;1.90;1.67;;;27.50;77.00;;;;;;7383482;19;20014;-78
2023/09/02 12:51:30;;;;;;;5.20;2.10;;;27.60;76.60;;;;;;7385823;19;20031;-78
2023/09/02 12:53:59;;;;;;;5.82;1.95;;;27.60;75.10;;;;;;7388203;19;20004;-78
2023/09/02 12:56:28;;;;;;;5.28;1.75;;;27.70;76.10;;;;;;7384717;19;20010;-79
2023/09/02 12:58:56;;;;;;;6.00;1.88;;;27.70;76.30;;;;;;7405290;19;20006;-78
2023/09/02 13:01:25;;;;;;;4.75;2.75;;;27.80;75.80;;;;;;7383669;19;20023;-79
2023/09/02 13:03:54;;;;;;;3.22;1.90;;;27.80;75.10;;;;;;7386419;19;20251;-79
2023/09/02 13:06:23;;;;;;;2.65;1.85;;;27.90;75.10;;;;;;7383969;19;20007;-78